createdAt,value
2018-12-23T00:01:44.041Z,20.40
2018-12-23T00:04:33.003Z,11.12
2018-12-23T00:07:26.058Z,13.15
2018-12-23T00:10:19.879Z,24.18
2018-12-23T00:13:12.935Z,20.23
2018-12-23T00:16:06.254Z,25.40
2018-12-23T00:18:59.306Z,13.70
2018-12-23T00:21:52.104Z,22.77
2018-12-23T00:24:44.903Z,27.42
2018-12-23T00:27:39.254Z,28.02
2018-12-23T00:30:32.296Z,18.87
2018-12-23T00:33:25.673Z,26.68
2018-12-23T00:36:18.670Z,19.75
2018-12-23T00:39:07.628Z,18.60
2018-12-23T00:42:01.704Z,16.45
2018-12-23T00:44:54.762Z,16.57
2018-12-23T00:47:48.329Z,13.80
2018-12-23T00:50:41.131Z,18.17
2018-12-23T00:53:33.929Z,20.62
2018-12-23T00:56:26.984Z,15.90
2018-12-23T00:59:19.784Z,18.62
2018-12-23T01:02:13.866Z,23.10
2018-12-23T01:05:06.663Z,23.92
2018-12-23T01:07:59.464Z,20.85
2018-12-23T01:10:52.522Z,17.95
2018-12-23T01:13:41.768Z,22.17
2018-12-23T01:16:35.049Z,21.65
2018-12-23T01:19:27.859Z,21.85
2018-12-23T01:22:20.904Z,21.30
2018-12-23T01:25:13.705Z,20.95
2018-12-23T01:28:06.504Z,18.65
2018-12-23T01:30:59.563Z,17.87
2018-12-23T01:33:52.618Z,13.70
2018-12-23T01:36:45.672Z,18.20
2018-12-23T01:39:39.500Z,17.42
2018-12-23T01:42:32.557Z,24.65
2018-12-23T01:45:22.026Z,21.27
2018-12-23T01:48:15.084Z,17.92
2018-12-23T01:51:08.136Z,23.12
2018-12-23T01:54:00.937Z,16.25
2018-12-23T01:56:54.248Z,20.57
2018-12-23T01:59:47.303Z,18.80
2018-12-23T02:02:42.167Z,22.75
2018-12-23T02:05:35.975Z,30.75
2018-12-23T02:08:29.032Z,16.45
2018-12-23T02:11:22.088Z,11.80
2018-12-23T02:14:15.145Z,33.98
2018-12-23T02:17:08.200Z,24.25
2018-12-23T02:20:01.258Z,19.73
2018-12-23T02:22:54.313Z,13.48
2018-12-23T02:25:47.121Z,16.75
2018-12-23T02:28:40.937Z,30.90
2018-12-23T02:31:34.503Z,20.97
2018-12-23T02:34:27.306Z,12.65
2018-12-23T02:37:20.361Z,18.73
2018-12-23T02:40:13.418Z,19.82
2018-12-23T02:43:09.290Z,23.77
2018-12-23T02:46:02.089Z,21.65
2018-12-23T02:49:02.572Z,29.18
2018-12-23T02:51:55.370Z,14.80
2018-12-23T02:54:48.173Z,14.73
2018-12-23T02:57:41.225Z,18.48
2018-12-23T03:00:34.031Z,10.90
2018-12-23T03:03:26.824Z,15.30
2018-12-23T03:06:20.659Z,20.80
2018-12-23T03:09:13.450Z,18.87
2018-12-23T03:12:06.504Z,13.25
2018-12-23T03:14:59.819Z,16.42
2018-12-23T03:17:53.143Z,10.72
2018-12-23T03:20:46.444Z,17.77
2018-12-23T03:23:43.086Z,16.62
2018-12-23T03:26:35.887Z,10.95
2018-12-23T03:29:28.681Z,19.67
2018-12-23T03:32:21.507Z,7.47
2018-12-23T03:35:14.536Z,18.00
2018-12-23T03:38:07.594Z,11.33
2018-12-23T03:41:00.392Z,19.90
2018-12-23T03:43:53.194Z,18.90
2018-12-23T03:46:47.272Z,11.60
2018-12-23T03:49:40.072Z,20.57
2018-12-23T03:52:32.884Z,18.98
2018-12-23T03:55:26.953Z,9.98
2018-12-23T03:58:20.013Z,10.53
2018-12-23T04:01:09.190Z,16.15
2018-12-23T04:04:04.842Z,22.32
2018-12-23T04:06:58.156Z,13.20
2018-12-23T04:12:57.065Z,23.60
2018-12-23T04:15:50.896Z,16.48
2018-12-23T04:18:43.944Z,27.45
2018-12-23T04:21:37.003Z,14.78
2018-12-23T04:24:36.206Z,15.40
2018-12-23T04:27:29.003Z,24.37
2018-12-23T04:30:21.800Z,16.85
2018-12-23T04:33:10.760Z,22.45
2018-12-23T04:36:03.816Z,17.25
2018-12-23T04:38:56.620Z,12.15
2018-12-23T04:41:49.417Z,38.90
2018-12-23T04:44:45.304Z,25.30
2018-12-23T04:47:38.347Z,14.10
2018-12-23T04:50:31.399Z,13.45
2018-12-23T04:53:20.634Z,23.45
2018-12-23T04:56:25.962Z,16.77
2018-12-23T04:59:19.019Z,20.08
2018-12-23T05:02:11.932Z,22.27
2018-12-23T05:05:07.690Z,16.57
2018-12-23T05:08:00.751Z,14.15
2018-12-23T05:10:54.057Z,14.60
2018-12-23T05:13:47.112Z,16.65
2018-12-23T05:16:39.916Z,20.30
2018-12-23T05:19:33.229Z,22.90
2018-12-23T05:22:26.281Z,21.65
2018-12-23T05:25:19.079Z,22.98
2018-12-23T05:28:12.135Z,15.05
2018-12-23T05:31:06.730Z,15.70
2018-12-23T05:33:59.791Z,15.48
2018-12-23T05:36:52.845Z,12.47
2018-12-23T05:39:45.385Z,17.05
2018-12-23T05:42:39.464Z,15.45
2018-12-23T05:45:32.520Z,14.53
2018-12-23T05:48:26.345Z,21.77
2018-12-23T05:51:21.711Z,12.65
2018-12-23T05:54:14.506Z,6.12
2018-12-23T05:57:08.586Z,10.35
2018-12-23T06:00:01.383Z,17.42
2018-12-23T06:02:54.185Z,13.83
2018-12-23T06:05:47.247Z,7.95
2018-12-23T06:08:40.300Z,19.50
2018-12-23T06:11:33.355Z,15.65
2018-12-23T06:14:29.224Z,12.07
2018-12-23T06:17:22.281Z,11.57
2018-12-23T06:20:15.335Z,6.53
2018-12-23T06:23:08.139Z,11.50
2018-12-23T06:26:01.449Z,9.30
2018-12-23T06:28:54.504Z,12.85
2018-12-23T06:31:47.303Z,8.50
2018-12-23T06:34:40.103Z,11.15
2018-12-23T06:37:33.420Z,12.60
2018-12-23T06:40:26.477Z,13.72
2018-12-23T06:43:19.529Z,8.45
2018-12-23T06:46:13.096Z,17.20
2018-12-23T06:49:06.925Z,9.50
2018-12-23T06:51:59.718Z,6.87
2018-12-23T06:54:52.521Z,9.53
2018-12-23T06:57:45.319Z,8.33
2018-12-23T07:00:38.120Z,8.63
2018-12-23T07:03:31.175Z,8.05
2018-12-23T07:06:23.976Z,8.00
2018-12-23T07:09:13.194Z,8.18
2018-12-23T07:12:13.159Z,7.37
2018-12-23T07:15:06.217Z,3.83
2018-12-23T07:17:59.016Z,7.65
2018-12-23T07:20:52.329Z,6.90
2018-12-23T07:23:46.149Z,2.15
2018-12-23T07:26:38.952Z,5.70
2018-12-23T07:29:31.751Z,5.65
2018-12-23T07:32:24.807Z,6.58
2018-12-23T07:35:17.607Z,4.80
2018-12-23T07:38:11.176Z,6.05
2018-12-23T07:41:04.488Z,1.85
2018-12-23T07:43:57.292Z,4.15
2018-12-23T07:46:50.091Z,2.87
2018-12-23T07:49:43.912Z,5.08
2018-12-23T07:52:37.742Z,6.12
2018-12-23T07:55:31.047Z,2.75
2018-12-23T07:58:23.846Z,4.90
2018-12-23T08:01:16.905Z,3.75
2018-12-23T08:04:11.240Z,5.85
2018-12-23T08:07:04.297Z,7.08
2018-12-23T08:09:56.955Z,4.60
2018-12-23T08:12:49.909Z,2.75
2018-12-23T08:15:42.963Z,6.10
2018-12-23T08:18:37.294Z,5.00
2018-12-23T08:21:30.598Z,3.10
2018-12-23T08:24:23.403Z,5.58
2018-12-23T08:27:17.738Z,2.58
2018-12-23T08:30:10.538Z,1.22
2018-12-23T08:33:03.593Z,2.60
2018-12-23T08:35:56.390Z,4.08
2018-12-23T08:38:49.204Z,1.30
2018-12-23T08:41:41.993Z,3.47
2018-12-23T08:44:36.327Z,1.92
2018-12-23T08:47:29.128Z,6.12
2018-12-23T08:50:22.183Z,1.98
2018-12-23T08:53:14.984Z,2.65
2018-12-23T08:56:07.808Z,5.00
2018-12-23T08:59:01.863Z,2.33
2018-12-23T09:01:54.663Z,3.35
2018-12-23T09:04:47.976Z,5.60
2018-12-23T09:07:40.777Z,2.80
2018-12-23T09:10:34.090Z,3.52
2018-12-23T09:13:27.147Z,2.62
2018-12-23T09:16:21.251Z,2.12
2018-12-23T09:19:14.535Z,3.98
2018-12-23T09:22:10.408Z,2.45
2018-12-23T09:25:03.464Z,4.65
2018-12-23T09:27:57.290Z,2.72
2018-12-23T09:30:46.375Z,6.50
2018-12-23T09:33:40.326Z,1.35
2018-12-23T09:36:35.176Z,3.45
2018-12-23T09:39:28.744Z,3.40
2018-12-23T09:42:21.543Z,2.15
2018-12-23T09:45:15.375Z,1.42
2018-12-23T09:48:08.424Z,2.10
2018-12-23T09:51:01.747Z,3.77
2018-12-23T09:53:54.790Z,3.37
2018-12-23T09:56:47.846Z,2.15
2018-12-23T09:59:42.951Z,2.17
2018-12-23T10:02:35.759Z,1.85
2018-12-23T10:05:31.625Z,2.87
2018-12-23T10:08:24.679Z,1.45
2018-12-23T10:11:17.488Z,3.15
2018-12-23T10:14:11.050Z,2.12
2018-12-23T10:17:04.120Z,2.02
2018-12-23T10:19:57.159Z,2.58
2018-12-23T10:22:44.936Z,1.85
2018-12-23T10:25:37.900Z,1.17
2018-12-23T10:28:38.122Z,3.17
2018-12-23T10:31:31.949Z,1.42
2018-12-23T10:34:25.001Z,1.17
2018-12-23T10:37:19.341Z,2.02
2018-12-23T10:40:12.395Z,1.35
2018-12-23T10:43:05.195Z,1.10
2018-12-23T10:45:59.273Z,2.90
2018-12-23T10:49:03.848Z,2.92
2018-12-23T10:51:57.160Z,2.05
2018-12-23T10:54:49.959Z,2.98
2018-12-23T10:57:45.841Z,1.15
2018-12-23T11:00:39.666Z,1.82
2018-12-23T11:03:32.459Z,1.37
2018-12-23T11:06:25.512Z,1.82
2018-12-23T11:09:19.591Z,0.80
2018-12-23T11:12:21.352Z,1.37
2018-12-23T11:15:14.408Z,2.52
2018-12-23T11:18:08.500Z,0.70
2018-12-23T11:20:58.726Z,1.10
2018-12-23T11:23:51.533Z,0.93
2018-12-23T11:26:56.874Z,1.92
2018-12-23T11:29:52.491Z,0.80
2018-12-23T11:32:45.287Z,1.00
2018-12-23T11:35:38.341Z,0.50
2018-12-23T11:38:35.513Z,0.85
2018-12-23T11:41:24.720Z,1.35
2018-12-23T11:44:18.802Z,0.70
2018-12-23T11:47:11.599Z,2.25
2018-12-23T11:50:04.398Z,1.12
2018-12-23T11:52:58.219Z,0.93
2018-12-23T11:55:51.025Z,2.12
2018-12-23T11:58:44.076Z,1.02
2018-12-23T12:01:38.160Z,1.72
2018-12-23T12:04:30.950Z,1.40
2018-12-23T12:07:25.030Z,1.47
2018-12-23T12:10:18.343Z,0.90
2018-12-23T12:13:11.401Z,0.98
2018-12-23T12:16:04.711Z,1.52
2018-12-23T12:18:57.767Z,0.70
2018-12-23T12:21:50.586Z,1.50
2018-12-23T12:24:43.634Z,4.12
2018-12-23T12:27:37.193Z,1.77
2018-12-23T12:30:30.247Z,1.00
2018-12-23T12:33:24.328Z,1.10
2018-12-23T12:36:17.128Z,0.85
2018-12-23T12:39:09.926Z,2.10
2018-12-23T12:42:02.728Z,2.47
2018-12-23T12:44:55.784Z,0.70
2018-12-23T12:47:48.844Z,1.05
2018-12-23T12:50:38.314Z,0.93
2018-12-23T12:53:32.136Z,2.10
2018-12-23T12:56:25.192Z,1.00
2018-12-23T12:59:18.245Z,3.87
2018-12-23T13:02:11.047Z,0.82
2018-12-23T13:05:04.103Z,1.12
2018-12-23T13:07:56.905Z,2.98
2018-12-23T13:10:49.959Z,1.05
2018-12-23T13:13:43.273Z,1.12
2018-12-23T13:16:36.070Z,1.20
2018-12-23T13:19:29.127Z,0.80
2018-12-23T13:22:22.186Z,3.77
2018-12-23T13:25:15.239Z,3.52
2018-12-23T13:28:08.038Z,2.17
2018-12-23T13:31:00.838Z,0.98
2018-12-23T13:33:53.963Z,1.42
2018-12-23T13:36:47.470Z,1.87
2018-12-23T13:39:41.286Z,1.92
2018-12-23T13:42:48.680Z,1.12
2018-12-23T13:45:56.840Z,1.98
2018-12-23T13:49:09.611Z,0.90
2018-12-23T13:52:13.416Z,1.10
2018-12-23T13:55:16.200Z,1.32
2018-12-23T13:58:19.495Z,0.75
2018-12-23T14:01:38.920Z,1.05
2018-12-23T14:04:48.872Z,1.02
2018-12-23T14:08:08.297Z,5.42
2018-12-23T14:11:18.247Z,1.00
2018-12-23T14:14:07.440Z,2.47
2018-12-23T14:17:00.539Z,1.87
2018-12-23T14:19:54.087Z,3.95
2018-12-23T14:22:46.897Z,0.90
2018-12-23T14:25:40.203Z,1.10
2018-12-23T14:28:33.511Z,1.00
2018-12-23T14:31:27.079Z,1.02
2018-12-23T14:34:20.903Z,0.90
2018-12-23T14:37:13.960Z,3.98
2018-12-23T14:40:08.573Z,3.15
2018-12-23T14:43:01.863Z,1.32
2018-12-23T14:45:54.663Z,1.65
2018-12-23T14:48:47.462Z,0.93
2018-12-23T14:51:48.970Z,0.88
2018-12-23T14:54:42.023Z,1.52
2018-12-23T14:57:31.180Z,4.55
2018-12-23T15:00:25.831Z,1.50
2018-12-23T15:03:18.637Z,1.55
2018-12-23T15:06:11.689Z,2.30
2018-12-23T15:09:04.747Z,2.33
2018-12-23T15:11:57.801Z,0.60
2018-12-23T15:14:50.603Z,1.00
2018-12-23T15:17:43.399Z,0.98
2018-12-23T15:20:36.455Z,2.20
2018-12-23T15:23:29.773Z,1.00
2018-12-23T15:26:22.569Z,2.37
2018-12-23T15:29:15.879Z,1.52
2018-12-23T15:32:08.934Z,4.83
2018-12-23T15:35:01.991Z,0.90
2018-12-23T15:37:55.366Z,4.33
2018-12-23T15:40:48.360Z,0.75
2018-12-23T15:43:41.160Z,1.10
2018-12-23T15:46:35.243Z,0.90
2018-12-23T15:49:29.063Z,1.32
2018-12-23T15:52:22.120Z,1.15
2018-12-23T15:55:14.923Z,2.72
2018-12-23T15:58:15.143Z,4.70
2018-12-23T16:01:07.943Z,2.67
2018-12-23T16:04:01.513Z,1.70
2018-12-23T16:06:54.313Z,1.65
2018-12-23T16:09:51.248Z,1.00
2018-12-23T16:12:42.480Z,1.00
2018-12-23T16:15:35.535Z,1.77
2018-12-23T16:18:28.327Z,3.37
2018-12-23T16:21:21.127Z,3.33
2018-12-23T16:24:13.929Z,1.15
2018-12-23T16:27:06.731Z,1.72
2018-12-23T16:29:59.527Z,1.77
2018-12-23T16:32:53.094Z,1.55
2018-12-23T16:35:45.899Z,1.20
2018-12-23T16:39:34.764Z,1.00
2018-12-23T16:42:28.839Z,6.42
2018-12-23T16:45:22.661Z,1.77
2018-12-23T16:48:15.462Z,1.07
2018-12-23T16:51:09.287Z,2.60
2018-12-23T16:54:02.600Z,1.72
2018-12-23T16:56:55.400Z,1.80
2018-12-23T16:59:48.455Z,0.90
2018-12-23T17:02:42.281Z,0.90
2018-12-23T17:05:35.591Z,3.12
2018-12-23T17:08:36.329Z,1.22
2018-12-23T17:11:29.135Z,1.67
2018-12-23T17:14:22.188Z,1.10
2018-12-23T17:17:15.245Z,1.22
2018-12-23T17:20:08.301Z,2.47
2018-12-23T17:23:04.172Z,1.00
2018-12-23T17:25:56.968Z,3.05
2018-12-23T17:28:49.768Z,4.33
2018-12-23T17:31:43.850Z,1.87
2018-12-23T17:34:36.648Z,1.82
2018-12-23T17:37:29.711Z,3.10
2018-12-23T17:40:22.765Z,1.95
2018-12-23T17:43:15.816Z,3.52
2018-12-23T17:46:08.871Z,3.00
2018-12-23T17:49:02.439Z,2.67
2018-12-23T17:51:55.241Z,1.60
2018-12-23T17:54:48.815Z,2.92
2018-12-23T17:57:42.888Z,2.52
2018-12-23T18:00:36.970Z,2.08
2018-12-23T18:03:29.772Z,3.05
2018-12-23T18:06:22.824Z,2.12
2018-12-23T18:09:12.300Z,3.75
2018-12-23T18:12:06.376Z,1.75
2018-12-23T18:14:59.437Z,2.20
2018-12-23T18:17:54.025Z,1.47
2018-12-23T18:20:47.591Z,1.62
2018-12-23T18:23:41.927Z,3.37
2018-12-23T18:26:34.728Z,2.35
2018-12-23T18:29:27.783Z,5.50
2018-12-23T18:32:21.609Z,1.90
2018-12-23T18:35:14.408Z,2.10
2018-12-23T18:38:08.232Z,4.40
2018-12-23T18:41:01.545Z,2.10
2018-12-23T18:43:54.608Z,2.25
2018-12-23T18:46:47.919Z,1.98
2018-12-23T18:49:40.712Z,1.45
2018-12-23T18:52:34.544Z,1.62
2018-12-23T18:55:28.614Z,2.72
2018-12-23T18:58:22.183Z,3.70
2018-12-23T19:01:18.059Z,1.90
2018-12-23T19:04:10.854Z,2.67
2018-12-23T19:07:00.074Z,3.05
2018-12-23T19:09:55.944Z,1.67
2018-12-23T19:13:04.360Z,1.85
2018-12-23T19:16:12.518Z,2.50
2018-12-23T19:19:22.727Z,2.02
2018-12-23T19:22:36.270Z,3.85
2018-12-23T19:25:46.727Z,1.45
2018-12-23T19:29:06.923Z,1.87
2018-12-23T19:32:23.022Z,1.72
2018-12-23T19:35:34.506Z,3.17
2018-12-23T19:38:37.544Z,1.37
2018-12-23T19:41:39.046Z,1.25
2018-12-23T19:44:43.626Z,1.45
2018-12-23T19:48:03.046Z,1.42
2018-12-23T19:51:13.774Z,1.27
2018-12-23T19:54:24.240Z,2.55
2018-12-23T19:57:31.628Z,1.47
2018-12-23T20:00:35.944Z,2.27
2018-12-23T20:03:46.151Z,1.92
2018-12-23T20:06:50.221Z,1.07
2018-12-23T20:09:54.535Z,1.22
2018-12-23T20:12:57.576Z,2.22
2018-12-23T20:16:00.614Z,1.10
2018-12-23T20:19:07.752Z,1.15
2018-12-23T20:22:15.144Z,1.40
2018-12-23T20:25:29.447Z,1.27
2018-12-23T20:28:33.769Z,1.98
2018-12-23T20:31:36.299Z,1.20
2018-12-23T20:34:46.247Z,3.33
2018-12-23T20:37:50.822Z,1.50
2018-12-23T20:41:07.470Z,1.15
2018-12-23T20:44:06.373Z,1.70
2018-12-23T20:47:04.551Z,2.05
2018-12-23T20:50:08.626Z,1.60
2018-12-23T20:53:24.972Z,1.85
2018-12-23T20:56:29.033Z,1.75
2018-12-23T20:59:44.109Z,2.45
2018-12-23T21:02:55.082Z,2.45
2018-12-23T21:06:02.219Z,1.92
2018-12-23T21:09:12.167Z,2.33
2018-12-23T21:12:16.489Z,2.55
2018-12-23T21:15:35.910Z,1.62
2018-12-23T21:18:43.047Z,2.30
2018-12-23T21:21:53.771Z,3.50
2018-12-23T21:24:58.086Z,4.72
2018-12-23T21:28:02.409Z,2.12
2018-12-23T21:31:15.686Z,1.67
2018-12-23T21:34:36.140Z,2.70
2018-12-23T21:37:39.442Z,1.27
2018-12-23T21:40:43.761Z,3.08
2018-12-23T21:43:51.662Z,1.30
2018-12-23T21:46:55.981Z,1.30
2018-12-23T21:49:59.277Z,1.50
2018-12-23T21:53:02.060Z,3.08
2018-12-23T21:56:15.339Z,1.62
2018-12-23T21:59:22.473Z,4.87
2018-12-23T22:02:35.750Z,0.90
2018-12-23T22:09:05.128Z,1.17
2018-12-23T22:12:13.547Z,1.52
2018-12-23T22:15:07.111Z,4.35
2018-12-23T22:17:59.912Z,1.87
2018-12-23T22:20:52.977Z,2.17
2018-12-23T22:23:46.538Z,2.10
2018-12-23T22:26:42.409Z,0.80
2018-12-23T22:29:35.213Z,1.80
2018-12-23T22:32:28.266Z,0.95
2018-12-23T22:35:21.324Z,1.47
2018-12-23T22:38:14.378Z,1.37
2018-12-23T22:41:09.992Z,2.58
2018-12-23T22:44:02.794Z,1.15
2018-12-23T22:46:55.852Z,0.70
2018-12-23T22:49:44.811Z,3.70
2018-12-23T22:52:37.617Z,1.05
2018-12-23T22:55:26.988Z,1.02
2018-12-23T22:58:19.878Z,0.72
2018-12-23T23:01:13.959Z,0.60
2018-12-23T23:04:08.047Z,1.20
2018-12-23T23:07:00.838Z,0.70
2018-12-23T23:09:53.898Z,0.70
2018-12-23T23:12:48.232Z,1.22
2018-12-23T23:15:41.038Z,0.90
2018-12-23T23:21:47.883Z,0.88
2018-12-23T23:24:40.679Z,1.65
2018-12-23T23:27:33.738Z,1.25
2018-12-23T23:30:27.047Z,0.90
2018-12-23T23:33:19.850Z,1.57
2018-12-23T23:36:13.672Z,1.10
2018-12-23T23:39:06.471Z,4.40
2018-12-23T23:41:59.528Z,1.40
2018-12-23T23:44:52.328Z,1.52
2018-12-23T23:47:45.127Z,3.30
2018-12-23T23:50:38.963Z,1.15
2018-12-23T23:53:31.751Z,0.75
2018-12-23T23:56:24.604Z,1.57
2018-12-23T23:59:17.606Z,0.65
